Time;durP1;ratioP1;P1;durP2;ratioP2;P2;SDS_P1;SDS_P2;PMS_P1;PMS_P2;Temp;Humidity;BMP_temperature;BMP_pressure;BME280_temperature;BME280_humidity;BME280_pressure;Samples;Min_cycle;Max_cycle;Signal;HPM_P1;HPM_P2
2022/06/30 00:01:56;;;;;;;6.82;4.30;;;;;;;20.98;nan;-24400.25;4980950;28;20190;-56
2022/06/30 00:04:21;;;;;;;6.43;4.05;;;;;;;21.08;nan;-24403.16;4980818;28;20608;-58
2022/06/30 00:06:46;;;;;;;5.70;3.85;;;;;;;20.97;nan;-24400.13;4979396;28;20958;-57
2022/06/30 00:09:12;;;;;;;6.70;4.40;;;;;;;21.14;nan;-24404.69;4980253;28;20269;-57
2022/06/30 00:11:37;;;;;;;7.22;4.40;;;;;;;20.71;nan;-24392.91;4983158;28;20834;-59
2022/06/30 00:14:03;;;;;;;7.07;4.90;;;;;;;20.65;nan;-24391.22;4978577;28;20579;-59
2022/06/30 00:16:29;;;;;;;6.82;4.35;;;;;;;20.63;nan;-24390.69;4979816;28;20302;-56
2022/06/30 00:18:54;;;;;;;6.95;4.22;;;;;;;21.00;nan;-24400.94;4980441;28;20381;-57
2022/06/30 00:21:20;;;;;;;6.43;4.03;;;;;;;20.84;nan;-24396.50;4980336;28;20176;-55
2022/06/30 00:23:45;;;;;;;5.68;3.88;;;;;;;21.07;nan;-24402.88;4980045;28;20191;-58
2022/06/30 00:26:11;;;;;;;7.13;4.47;;;;;;;20.80;nan;-24395.25;4986999;28;20192;-58
2022/06/30 00:28:36;;;;;;;6.75;3.90;;;;;;;20.89;nan;-24397.75;4989547;28;20190;-56
2022/06/30 00:31:02;;;;;;;5.85;3.80;;;;;;;20.95;nan;-24399.56;4982992;28;20184;-59
2022/06/30 00:33:27;;;;;;;8.25;4.35;;;;;;;20.73;nan;-24393.44;4979210;28;20231;-58
2022/06/30 00:35:53;;;;;;;8.35;4.72;;;;;;;20.44;nan;-24385.53;4980589;28;20187;-58
2022/06/30 00:38:19;;;;;;;5.85;4.10;;;;;;;20.29;nan;-24381.50;4989925;28;20184;-56
2022/06/30 00:40:45;;;;;;;7.18;4.10;;;;;;;20.51;nan;-24387.50;4986273;28;20247;-57
2022/06/30 00:43:12;;;;;;;6.95;4.20;;;;;;;20.51;nan;-24387.34;4988143;28;20191;-57
2022/06/30 00:45:42;;;;;;;7.68;4.55;;;;;;;20.47;nan;-24386.38;4986414;28;20184;-57
2022/06/30 00:48:09;;;;;;;6.45;3.95;;;;;;;20.07;nan;-24375.41;4987082;28;20643;-55
2022/06/30 00:50:34;;;;;;;8.25;4.72;;;;;;;20.25;nan;-24380.25;4986067;28;20263;-56
2022/06/30 00:53:03;;;;;;;6.10;4.07;;;;;;;20.20;nan;-24379.00;4984561;28;20189;-58
2022/06/30 00:55:30;;;;;;;7.53;4.18;;;;;;;20.01;nan;-24373.59;4983153;28;20208;-55
2022/06/30 00:57:59;;;;;;;7.00;4.07;;;;;;;20.27;nan;-24380.81;4982563;28;20191;-57
2022/06/30 01:00:25;;;;;;;6.63;4.10;;;;;;;19.90;nan;-24370.69;4989109;28;20298;-57
2022/06/30 01:02:52;;;;;;;7.45;4.28;;;;;;;20.03;nan;-24374.16;4982520;28;20643;-58
2022/06/30 01:05:20;;;;;;;8.38;4.57;;;;;;;19.89;nan;-24370.25;4982378;28;20282;-57
2022/06/30 01:07:47;;;;;;;7.57;4.50;;;;;;;20.25;nan;-24380.25;4984205;28;20571;-59
2022/06/30 01:12:56;;;;;;;5.90;4.10;;;;;;;20.22;nan;-24379.44;4981552;28;20635;-59
2022/06/30 01:15:22;;;;;;;5.30;3.50;;;;;;;20.07;nan;-24375.41;4983212;28;20182;-58
2022/06/30 01:17:49;;;;;;;6.00;4.00;;;;;;;20.33;nan;-24382.34;4982619;28;20180;-57
2022/06/30 01:20:16;;;;;;;6.15;4.47;;;;;;;20.10;nan;-24376.25;4983233;28;20269;-56
2022/06/30 01:22:43;;;;;;;7.15;4.38;;;;;;;20.13;nan;-24376.94;4983362;28;20732;-59
2022/06/30 01:25:09;;;;;;;7.28;4.20;;;;;;;19.90;nan;-24370.69;4982489;28;20206;-58
2022/06/30 01:27:35;;;;;;;8.18;4.50;;;;;;;19.88;nan;-24369.97;4981506;28;20200;-58
2022/06/30 01:30:01;;;;;;;7.03;4.30;;;;;;;19.93;nan;-24371.50;4982078;28;20874;-57
2022/06/30 01:32:28;;;;;;;7.50;4.20;;;;;;;19.72;nan;-24365.69;4985306;28;20183;-58
2022/06/30 01:34:54;;;;;;;5.25;4.00;;;;;;;20.04;nan;-24374.56;4984103;28;20279;-58
2022/06/30 01:37:20;;;;;;;5.47;3.90;;;;;;;20.14;nan;-24377.34;4991570;28;20195;-56
2022/06/30 01:39:46;;;;;;;7.28;4.00;;;;;;;20.15;nan;-24377.47;4982847;28;20208;-58
2022/06/30 01:42:12;;;;;;;7.05;4.15;;;;;;;20.23;nan;-24379.84;4981119;28;20277;-58
2022/06/30 01:44:37;;;;;;;5.60;3.80;;;;;;;20.19;nan;-24378.59;4982029;28;20194;-57
2022/06/30 01:47:03;;;;;;;6.10;4.30;;;;;;;20.22;nan;-24379.56;4980814;28;20191;-57
2022/06/30 01:49:29;;;;;;;6.28;4.43;;;;;;;20.24;nan;-24380.13;4982540;28;20195;-56
2022/06/30 01:51:54;;;;;;;5.38;3.70;;;;;;;20.11;nan;-24376.50;4991846;28;20187;-57
2022/06/30 01:54:22;;;;;;;6.13;4.30;;;;;;;19.68;nan;-24364.69;4982693;28;20813;-59
2022/06/30 01:56:48;;;;;;;7.72;4.30;;;;;;;19.68;nan;-24364.56;4980839;28;20179;-57
2022/06/30 01:59:13;;;;;;;6.38;4.20;;;;;;;19.53;nan;-24360.53;4989923;28;20648;-58
2022/06/30 02:01:39;;;;;;;4.75;3.67;;;;;;;19.72;nan;-24365.69;4984223;28;20297;-59
2022/06/30 02:06:49;;;;;;;5.90;3.92;;;;;;;19.97;nan;-24372.50;4981813;28;20287;-56
2022/06/30 02:09:15;;;;;;;7.05;4.28;;;;;;;20.07;nan;-24375.25;4983357;28;20187;-57
2022/06/30 02:11:40;;;;;;;6.65;4.20;;;;;;;20.16;nan;-24377.91;4981359;28;20640;-57
2022/06/30 02:14:06;;;;;;;6.43;4.57;;;;;;;19.93;nan;-24371.50;4982578;28;21396;-57
2022/06/30 02:16:31;;;;;;;7.82;4.53;;;;;;;19.88;nan;-24369.97;4980863;28;20190;-57
2022/06/30 02:18:57;;;;;;;7.22;4.32;;;;;;;19.80;nan;-24368.03;4982427;28;20266;-56
2022/06/30 02:21:22;;;;;;;6.45;4.35;;;;;;;19.69;nan;-24364.84;4984923;28;20186;-58
2022/06/30 02:23:48;;;;;;;7.40;4.63;;;;;;;19.07;nan;-24347.72;4983831;28;20265;-57
2022/06/30 02:26:14;;;;;;;5.95;4.05;;;;;;;19.60;nan;-24362.34;4984125;28;20184;-58
2022/06/30 02:28:39;;;;;;;5.88;4.22;;;;;;;19.57;nan;-24361.66;4982409;28;20176;-59
2022/06/30 02:31:04;;;;;;;6.75;4.30;;;;;;;20.05;nan;-24374.84;4981905;28;20632;-56
2022/06/30 02:33:30;;;;;;;6.60;4.30;;;;;;;19.66;nan;-24364.00;4981511;28;20928;-58
2022/06/30 02:35:55;;;;;;;6.18;4.30;;;;;;;19.64;nan;-24363.59;4987064;28;20665;-57
2022/06/30 02:38:21;;;;;;;6.93;4.63;;;;;;;19.28;nan;-24353.56;4985883;28;20179;-59
2022/06/30 02:40:46;;;;;;;7.68;4.65;;;;;;;19.32;nan;-24354.81;4987256;28;20606;-59
2022/06/30 02:43:12;;;;;;;8.75;3.90;;;;;;;19.41;nan;-24357.34;4984850;28;21344;-56
2022/06/30 02:45:37;;;;;;;7.00;4.97;;;;;;;19.29;nan;-24353.84;4990330;28;20179;-59
2022/06/30 02:48:03;;;;;;;8.77;4.95;;;;;;;19.33;nan;-24355.09;4993958;28;20810;-57
2022/06/30 02:50:29;;;;;;;8.00;4.65;;;;;;;19.45;nan;-24358.16;4987591;28;20183;-57
2022/06/30 02:52:54;;;;;;;8.63;4.53;;;;;;;19.49;nan;-24359.28;4987050;28;20187;-56
2022/06/30 02:55:21;;;;;;;6.18;4.40;;;;;;;19.53;nan;-24360.38;4985141;28;20939;-56
2022/06/30 02:57:46;;;;;;;7.30;4.43;;;;;;;19.19;nan;-24351.06;4989960;28;20273;-57
2022/06/30 03:00:12;;;;;;;6.07;4.15;;;;;;;19.66;nan;-24364.16;4986528;28;20582;-57
2022/06/30 03:02:38;;;;;;;8.27;4.57;;;;;;;19.59;nan;-24362.06;4990420;28;20211;-58
2022/06/30 03:05:05;;;;;;;6.00;4.22;;;;;;;20.18;nan;-24378.31;4981921;28;21550;-57
2022/06/30 03:07:30;;;;;;;5.88;4.22;;;;;;;20.04;nan;-24374.56;4980930;28;20188;-58
2022/06/30 03:09:56;;;;;;;6.57;4.32;;;;;;;20.54;nan;-24388.19;4981731;28;20221;-58
2022/06/30 03:12:21;;;;;;;7.45;4.70;;;;;;;20.75;nan;-24393.88;4980920;28;20701;-57
2022/06/30 03:14:47;;;;;;;5.93;3.88;;;;;;;21.20;nan;-24406.34;4981683;28;20198;-59
2022/06/30 03:17:13;;;;;;;7.60;4.50;;;;;;;21.95;nan;-24426.88;4980815;28;21004;-58
2022/06/30 03:19:38;;;;;;;6.60;4.18;;;;;;;22.46;nan;-24440.84;4979142;28;20285;-59
2022/06/30 03:22:04;;;;;;;6.97;4.60;;;;;;;23.13;nan;-24459.09;4976968;28;20279;-56
2022/06/30 03:24:29;;;;;;;6.82;4.45;;;;;;;23.72;nan;-24475.38;4982097;28;20747;-58
2022/06/30 03:26:54;;;;;;;6.55;4.57;;;;;;;24.25;nan;-24489.75;4981747;28;21580;-57
2022/06/30 03:29:20;;;;;;;7.15;4.00;;;;;;;25.02;nan;-24510.69;4981826;28;20195;-55
2022/06/30 03:31:45;;;;;;;6.28;4.15;;;;;;;25.90;nan;-24534.63;4990899;28;20289;-58
2022/06/30 03:34:11;;;;;;;6.13;4.00;;;;;;;26.49;nan;-24550.56;4989325;28;20655;-58
2022/06/30 03:36:37;;;;;;;7.25;4.45;;;;;;;27.47;nan;-24577.19;4980617;28;20196;-57
2022/06/30 03:39:02;;;;;;;5.35;3.90;;;;;;;28.08;nan;-24593.88;4987207;28;20222;-59
2022/06/30 03:41:28;;;;;;;8.07;4.22;;;;;;;28.90;nan;-24616.06;4983357;28;20179;-56
2022/06/30 03:43:53;;;;;;;6.55;4.07;;;;;;;28.98;nan;-24618.25;4981606;28;20202;-57
2022/06/30 03:46:19;;;;;;;5.60;3.85;;;;;;;28.70;nan;-24610.59;4983769;28;20227;-57
2022/06/30 03:48:44;;;;;;;5.70;3.88;;;;;;;29.33;nan;-24627.53;4983673;28;20317;-58
2022/06/30 03:51:11;;;;;;;9.95;4.10;;;;;;;29.22;nan;-24624.53;4978791;28;20180;-56
2022/06/30 03:53:38;;;;;;;6.22;4.00;;;;;;;30.20;nan;-24651.00;4979315;28;21560;-58
2022/06/30 03:56:04;;;;;;;4.82;3.67;;;;;;;31.18;nan;-24677.28;4980131;28;20192;-60
2022/06/30 03:58:30;;;;;;;6.43;4.03;;;;;;;32.09;nan;-24701.88;4980316;28;20226;-59
2022/06/30 04:00:55;;;;;;;6.43;4.30;;;;;;;32.42;nan;-24710.84;4981381;28;21537;-59
2022/06/30 04:03:21;;;;;;;6.40;3.65;;;;;;;32.05;nan;-24700.78;4978356;28;20246;-55
2022/06/30 04:05:46;;;;;;;5.18;3.83;;;;;;;31.30;nan;-24680.69;4979019;28;20286;-57
2022/06/30 04:08:11;;;;;;;7.35;4.15;;;;;;;30.63;nan;-24662.72;4980921;28;20197;-58
2022/06/30 04:10:37;;;;;;;6.68;4.03;;;;;;;31.31;nan;-24680.81;4980740;28;20191;-58
2022/06/30 04:13:02;;;;;;;6.60;4.55;;;;;;;31.68;nan;-24690.75;4983938;28;20260;-58
2022/06/30 04:15:28;;;;;;;5.90;4.10;;;;;;;32.46;nan;-24711.66;4982706;28;20199;-58
2022/06/30 04:17:54;;;;;;;6.85;4.10;;;;;;;33.38;nan;-24736.34;4983801;28;20203;-58
2022/06/30 04:20:20;;;;;;;6.43;3.92;;;;;;;34.07;nan;-24755.00;4983574;28;20231;-60
2022/06/30 04:22:51;;;;;;;5.97;3.80;;;;;;;34.45;nan;-24765.03;4984357;28;20199;-57
2022/06/30 04:25:17;;;;;;;5.22;3.75;;;;;;;34.57;nan;-24768.25;4982694;28;20183;-60
2022/06/30 04:27:48;;;;;;;6.53;3.92;;;;;;;34.42;nan;-24764.22;4981301;28;20174;-57
2022/06/30 04:32:37;;;;;;;6.03;3.85;;;;;;;33.60;nan;-24742.44;4983813;28;20179;-59
2022/06/30 04:33:01;;;;;;;5.32;3.72;;;;;;;32.60;nan;-24715.59;4981539;28;20236;-59
2022/06/30 04:35:27;;;;;;;6.10;4.00;;;;;;;33.17;nan;-24730.91;4983166;28;20179;-58
2022/06/30 04:37:52;;;;;;;5.25;3.83;;;;;;;33.46;nan;-24738.50;4981853;28;20187;-58
2022/06/30 04:43:01;;;;;;;7.50;4.00;;;;;;;33.85;nan;-24748.94;4983049;28;20222;-59
2022/06/30 04:45:27;;;;;;;6.07;4.35;;;;;;;33.58;nan;-24741.75;4983013;28;20556;-58
2022/06/30 04:47:52;;;;;;;5.65;3.92;;;;;;;32.86;nan;-24722.50;4983582;28;20282;-57
2022/06/30 04:50:18;;;;;;;5.95;4.00;;;;;;;33.20;nan;-24731.72;4983035;28;20175;-57
2022/06/30 04:52:43;;;;;;;5.15;4.03;;;;;;;33.35;nan;-24735.66;4981742;28;22255;-56
2022/06/30 04:55:09;;;;;;;7.15;3.97;;;;;;;33.83;nan;-24748.53;4982297;28;20215;-57
2022/06/30 04:57:34;;;;;;;5.10;3.88;;;;;;;33.91;nan;-24750.69;4982509;28;20253;-58
2022/06/30 04:59:59;;;;;;;6.20;4.20;;;;;;;33.97;nan;-24752.19;4982055;28;21087;-59
2022/06/30 05:02:25;;;;;;;6.25;3.47;;;;;;;33.61;nan;-24742.56;4981314;28;20197;-57
2022/06/30 05:04:50;;;;;;;5.35;4.03;;;;;;;33.71;nan;-24745.41;4981032;28;20322;-58
2022/06/30 05:07:16;;;;;;;5.32;3.90;;;;;;;33.67;nan;-24744.19;4982822;28;20728;-59
2022/06/30 05:09:41;;;;;;;7.70;5.00;;;;;;;33.69;nan;-24744.88;4981416;28;20654;-57
2022/06/30 05:12:08;;;;;;;5.10;3.70;;;;;;;33.63;nan;-24743.25;4981857;28;20273;-58
2022/06/30 05:14:33;;;;;;;7.38;3.88;;;;;;;33.46;nan;-24738.50;4981390;28;20198;-59
2022/06/30 05:16:58;;;;;;;6.10;3.85;;;;;;;32.65;nan;-24716.97;4982954;28;20191;-58
2022/06/30 05:19:24;;;;;;;7.28;4.35;;;;;;;32.32;nan;-24708.13;4981143;28;20797;-58
2022/06/30 05:21:49;;;;;;;6.07;3.88;;;;;;;32.40;nan;-24710.16;4982337;28;20188;-58
2022/06/30 05:26:59;;;;;;;6.05;4.03;;;;;;;31.94;nan;-24697.81;4981016;28;20357;-57
2022/06/30 05:29:25;;;;;;;6.63;4.22;;;;;;;31.55;nan;-24687.50;4982520;28;20244;-57
2022/06/30 05:31:51;;;;;;;5.82;4.65;;;;;;;31.72;nan;-24691.84;4981109;28;20878;-59
2022/06/30 05:34:16;;;;;;;4.95;3.90;;;;;;;31.99;nan;-24699.16;4982918;28;20191;-58
2022/06/30 05:36:42;;;;;;;7.63;4.50;;;;;;;31.78;nan;-24693.47;4981767;28;20699;-57
2022/06/30 05:39:07;;;;;;;5.70;4.07;;;;;;;32.04;nan;-24700.53;4981906;28;20286;-61
2022/06/30 05:41:32;;;;;;;5.82;3.97;;;;;;;31.99;nan;-24699.31;4981228;28;20210;-60
2022/06/30 05:43:58;;;;;;;5.15;3.83;;;;;;;31.98;nan;-24699.03;4980621;28;20172;-60
2022/06/30 05:46:23;;;;;;;5.35;4.07;;;;;;;31.24;nan;-24678.91;4982383;28;20725;-56
2022/06/30 05:48:49;;;;;;;5.45;3.65;;;;;;;31.16;nan;-24676.88;4980959;28;20197;-59
2022/06/30 05:51:14;;;;;;;7.60;4.30;;;;;;;30.50;nan;-24659.03;4980831;28;21116;-61
2022/06/30 05:53:40;;;;;;;6.60;4.30;;;;;;;29.59;nan;-24634.50;4981759;28;20214;-57
2022/06/30 05:56:05;;;;;;;6.50;4.18;;;;;;;29.33;nan;-24627.53;4980523;28;20662;-59
2022/06/30 05:58:31;;;;;;;5.88;4.10;;;;;;;29.33;nan;-24627.66;4981485;28;20237;-58
2022/06/30 06:00:56;;;;;;;9.73;4.03;;;;;;;28.76;nan;-24612.22;4980008;28;20273;-57
2022/06/30 06:03:22;;;;;;;7.72;4.03;;;;;;;28.07;nan;-24593.63;4981965;28;21908;-59
2022/06/30 06:05:47;;;;;;;5.93;3.97;;;;;;;27.40;nan;-24575.25;4980566;28;20293;-60
2022/06/30 06:08:13;;;;;;;7.40;4.50;;;;;;;27.32;nan;-24573.06;4983003;28;20208;-59
2022/06/30 06:10:39;;;;;;;10.07;4.53;;;;;;;26.93;nan;-24562.66;4980136;28;20227;-59
2022/06/30 06:13:05;;;;;;;6.38;3.97;;;;;;;26.62;nan;-24554.13;4979811;28;20268;-58
2022/06/30 06:15:31;;;;;;;6.68;4.60;;;;;;;26.63;nan;-24554.53;4981388;28;20190;-57
2022/06/30 06:17:56;;;;;;;5.20;3.75;;;;;;;26.93;nan;-24562.50;4981792;28;20197;-57
2022/06/30 06:20:22;;;;;;;6.20;4.28;;;;;;;26.95;nan;-24563.19;4981356;28;20648;-60
2022/06/30 06:22:47;;;;;;;8.50;4.78;;;;;;;26.96;nan;-24563.34;4979917;28;20728;-62
2022/06/30 06:25:14;;;;;;;6.05;3.97;;;;;;;27.30;nan;-24572.50;4981452;28;20204;-60
2022/06/30 06:27:40;;;;;;;6.75;4.78;;;;;;;27.30;nan;-24572.66;4980402;28;21537;-61
2022/06/30 06:30:08;;;;;;;6.22;4.15;;;;;;;27.70;nan;-24583.47;4977910;28;20882;-59
2022/06/30 06:32:34;;;;;;;7.45;4.45;;;;;;;27.52;nan;-24578.69;4980143;28;20196;-60
2022/06/30 06:34:59;;;;;;;6.30;4.28;;;;;;;27.42;nan;-24575.94;4979641;28;22103;-60
2022/06/30 06:37:25;;;;;;;6.10;4.43;;;;;;;27.91;nan;-24589.25;4980662;28;20203;-60
2022/06/30 06:39:51;;;;;;;5.35;4.05;;;;;;;27.76;nan;-24585.13;4980758;28;20215;-59
2022/06/30 06:42:16;;;;;;;9.45;4.40;;;;;;;27.58;nan;-24580.34;4979752;28;20402;-61
2022/06/30 06:44:42;;;;;;;6.25;4.13;;;;;;;27.43;nan;-24576.06;4981994;28;20180;-58
2022/06/30 06:47:08;;;;;;;6.05;4.13;;;;;;;27.36;nan;-24574.31;4980949;28;20192;-61
2022/06/30 06:49:33;;;;;;;8.00;4.30;;;;;;;27.70;nan;-24583.34;4980215;28;20256;-62
2022/06/30 06:51:59;;;;;;;6.97;4.05;;;;;;;27.78;nan;-24585.53;4979978;28;20188;-60
2022/06/30 06:54:24;;;;;;;6.88;4.75;;;;;;;27.99;nan;-24591.44;4978517;28;20195;-60
2022/06/30 06:56:50;;;;;;;6.47;4.22;;;;;;;28.10;nan;-24594.44;4980152;28;20192;-62
2022/06/30 06:59:16;;;;;;;5.35;3.92;;;;;;;27.86;nan;-24587.88;4979891;28;20219;-62
2022/06/30 07:01:42;;;;;;;9.18;4.93;;;;;;;27.71;nan;-24583.75;4980182;28;21632;-62
2022/06/30 07:04:08;;;;;;;6.20;4.13;;;;;;;27.43;nan;-24576.06;4980099;28;20183;-62
2022/06/30 07:06:33;;;;;;;6.63;4.47;;;;;;;27.48;nan;-24577.44;4979250;28;20876;-60
2022/06/30 07:08:59;;;;;;;4.88;3.80;;;;;;;27.76;nan;-24585.13;4979448;28;20185;-61
2022/06/30 07:11:25;;;;;;;7.00;4.40;;;;;;;28.42;nan;-24603.06;4980775;28;20633;-60
2022/06/30 07:13:50;;;;;;;6.68;4.47;;;;;;;28.28;nan;-24599.22;4980029;28;20180;-61
2022/06/30 07:16:16;;;;;;;6.63;4.30;;;;;;;28.35;nan;-24601.16;4982265;28;20651;-62
2022/06/30 07:18:41;;;;;;;8.88;4.70;;;;;;;28.60;nan;-24607.84;4978974;28;20821;-62
2022/06/30 07:21:07;;;;;;;6.20;4.38;;;;;;;28.50;nan;-24605.25;4979107;28;20656;-62
2022/06/30 07:23:32;;;;;;;5.78;4.07;;;;;;;26.28;nan;-24545.06;4979011;28;20732;-61
2022/06/30 07:25:58;;;;;;;6.97;4.25;;;;;;;29.07;nan;-24620.56;4980554;28;20175;-60
2022/06/30 07:28:23;;;;;;;13.43;4.90;;;;;;;29.35;nan;-24628.22;4980266;28;20187;-58
2022/06/30 07:30:49;;;;;;;7.25;4.05;;;;;;;29.40;nan;-24629.59;4980309;28;20183;-62
2022/06/30 07:33:14;;;;;;;8.10;4.90;;;;;;;29.40;nan;-24629.44;4979282;28;20184;-61
2022/06/30 07:35:40;;;;;;;6.18;3.75;;;;;;;29.20;nan;-24624.13;4981536;28;20188;-62
2022/06/30 07:38:05;;;;;;;5.50;3.88;;;;;;;29.65;nan;-24636.13;4977005;28;20199;-62
2022/06/30 07:40:31;;;;;;;5.35;4.07;;;;;;;29.32;nan;-24627.25;4979806;28;20298;-62
2022/06/30 07:42:56;;;;;;;5.63;4.00;;;;;;;28.98;nan;-24618.25;4980483;28;20201;-62
2022/06/30 07:45:22;;;;;;;4.45;3.65;;;;;;;28.86;nan;-24614.97;4979000;28;20183;-62
2022/06/30 07:47:49;;;;;;;6.72;3.60;;;;;;;28.31;nan;-24599.91;4979405;28;20873;-59
2022/06/30 07:50:17;;;;;;;4.85;3.40;;;;;;;28.83;nan;-24614.00;4979352;28;20287;-61
2022/06/30 07:52:43;;;;;;;3.63;3.22;;;;;;;28.86;nan;-24614.97;4977724;28;20173;-60
2022/06/30 07:55:09;;;;;;;4.85;3.80;;;;;;;29.16;nan;-24623.03;4979293;28;20285;-61
2022/06/30 07:57:41;;;;;;;4.47;3.53;;;;;;;29.29;nan;-24626.56;4979707;28;21889;-61
2022/06/30 08:00:07;;;;;;;4.90;3.53;;;;;;;29.40;nan;-24629.59;4979742;28;20323;-58
2022/06/30 08:02:33;;;;;;;6.35;4.05;;;;;;;29.19;nan;-24623.84;4978749;28;20195;-61
2022/06/30 08:04:58;;;;;;;5.82;3.90;;;;;;;29.54;nan;-24633.25;4979265;28;20183;-58
2022/06/30 08:07:24;;;;;;;7.00;3.63;;;;;;;29.90;nan;-24642.97;4980162;28;20187;-59
2022/06/30 08:09:49;;;;;;;5.05;3.88;;;;;;;30.12;nan;-24648.81;4979882;28;20194;-62
2022/06/30 08:12:14;;;;;;;5.75;3.97;;;;;;;30.57;nan;-24661.09;4980380;28;20286;-60
2022/06/30 08:14:40;;;;;;;4.53;3.80;;;;;;;30.31;nan;-24654.00;4979525;28;20646;-60
2022/06/30 08:17:05;;;;;;;6.55;3.92;;;;;;;30.32;nan;-24654.13;4979093;28;20206;-59
2022/06/30 08:19:31;;;;;;;5.30;3.72;;;;;;;30.77;nan;-24666.41;4977666;28;20767;-59
2022/06/30 08:21:57;;;;;;;5.22;3.90;;;;;;;30.85;nan;-24668.44;4979041;28;20210;-60
2022/06/30 08:24:23;;;;;;;6.07;3.85;;;;;;;30.92;nan;-24670.47;4986419;28;20697;-58
2022/06/30 08:26:48;;;;;;;5.35;3.67;;;;;;;30.99;nan;-24672.25;4979286;28;20286;-61
2022/06/30 08:29:14;;;;;;;5.55;3.65;;;;;;;31.06;nan;-24674.16;4979973;28;20750;-61
2022/06/30 08:31:39;;;;;;;4.75;3.55;;;;;;;31.17;nan;-24677.00;4978306;28;20197;-61
2022/06/30 08:34:05;;;;;;;6.82;3.72;;;;;;;31.11;nan;-24675.53;4979693;28;20241;-59
2022/06/30 08:36:30;;;;;;;5.28;3.70;;;;;;;31.22;nan;-24678.50;4979440;28;20191;-60
2022/06/30 08:38:56;;;;;;;5.40;3.83;;;;;;;31.12;nan;-24675.78;4977719;28;20187;-61
2022/06/30 08:44:08;;;;;;;6.93;3.78;;;;;;;30.92;nan;-24670.34;4978220;28;20225;-59
2022/06/30 08:46:37;;;;;;;6.28;4.00;;;;;;;30.42;nan;-24657.00;4978070;28;20294;-62
2022/06/30 08:49:03;;;;;;;4.85;3.80;;;;;;;30.88;nan;-24669.25;4979290;28;20934;-60
2022/06/30 08:51:29;;;;;;;6.57;4.03;;;;;;;30.47;nan;-24658.38;4978852;28;20643;-58
2022/06/30 08:54:03;;;;;;;6.80;3.95;;;;;;;30.82;nan;-24667.75;4977261;28;20221;-62
2022/06/30 08:56:31;;;;;;;7.35;3.95;;;;;;;30.94;nan;-24671.03;4981164;28;20218;-62
2022/06/30 08:58:58;;;;;;;8.27;3.97;;;;;;;30.72;nan;-24665.03;4981327;28;20659;-59
2022/06/30 09:01:26;;;;;;;5.60;3.92;;;;;;;30.92;nan;-24670.34;4982274;28;20194;-59
2022/06/30 09:03:52;;;;;;;6.53;4.38;;;;;;;31.29;nan;-24680.41;4982288;28;20183;-58
2022/06/30 09:06:18;;;;;;;8.05;4.50;;;;;;;30.08;nan;-24647.88;4982791;28;20214;-60
2022/06/30 09:08:43;;;;;;;8.40;4.38;;;;;;;31.66;nan;-24690.34;4980092;28;20187;-61
2022/06/30 09:11:09;;;;;;;8.65;4.93;;;;;;;31.70;nan;-24691.28;4982194;28;20218;-60
2022/06/30 09:13:44;;;;;;;6.93;4.65;;;;;;;31.72;nan;-24691.84;4983127;28;20222;-59
2022/06/30 09:16:10;;;;;;;8.25;5.03;;;;;;;31.73;nan;-24692.09;4982020;28;20194;-61
2022/06/30 09:18:36;;;;;;;6.07;4.30;;;;;;;31.95;nan;-24698.09;4980790;28;22017;-59
2022/06/30 09:21:08;;;;;;;7.15;4.60;;;;;;;31.65;nan;-24689.94;4982121;28;20215;-60
2022/06/30 09:23:36;;;;;;;9.38;4.65;;;;;;;31.75;nan;-24692.78;4982412;28;20259;-60
2022/06/30 09:26:02;;;;;;;7.85;4.60;;;;;;;31.86;nan;-24695.63;4981229;28;20175;-59
2022/06/30 09:28:46;;;;;;;7.10;4.50;;;;;;;32.17;nan;-24704.06;4981001;28;20595;-58
2022/06/30 09:31:14;;;;;;;5.70;4.25;;;;;;;32.05;nan;-24700.66;4981391;28;20959;-61
2022/06/30 09:33:44;;;;;;;6.85;5.03;;;;;;;31.93;nan;-24697.69;4982172;28;20183;-60
2022/06/30 09:36:20;;;;;;;6.05;4.47;;;;;;;32.36;nan;-24709.09;4980593;28;20187;-63
2022/06/30 09:39:13;;;;;;;4.63;3.65;;;;;;;32.30;nan;-24707.59;4981936;28;20174;-59
2022/06/30 09:41:41;;;;;;;7.78;4.70;;;;;;;32.06;nan;-24701.06;4979948;28;20199;-61
2022/06/30 09:44:17;;;;;;;4.90;3.70;;;;;;;32.38;nan;-24709.63;4980356;28;20171;-61
2022/06/30 09:47:00;;;;;;;5.35;3.90;;;;;;;32.60;nan;-24715.59;4981214;28;20178;-61
2022/06/30 09:49:34;;;;;;;6.45;4.18;;;;;;;30.22;nan;-24651.53;4982260;28;22615;-60
2022/06/30 09:52:03;;;;;;;10.75;4.57;;;;;;;32.29;nan;-24707.31;4979969;28;20253;-60
2022/06/30 09:54:33;;;;;;;6.55;4.32;;;;;;;32.13;nan;-24702.84;4980623;28;20176;-59
2022/06/30 09:57:44;;;;;;;5.35;3.70;;;;;;;32.20;nan;-24704.88;4980748;28;22006;-58
2022/06/30 10:00:13;;;;;;;6.00;4.20;;;;;;;31.91;nan;-24697.13;4235465;28;20912;-60
2022/06/30 10:02:46;;;;;;;4.68;3.40;;;;;;;32.02;nan;-24699.97;4204116;28;20999;-59
2022/06/30 10:05:13;;;;;;;23.83;4.90;;;;;;;31.81;nan;-24694.28;4208360;28;21144;-58
2022/06/30 10:07:40;;;;;;;5.60;4.05;;;;;;;31.77;nan;-24693.19;4430645;28;20183;-59
2022/06/30 10:10:10;;;;;;;6.20;3.85;;;;;;;31.58;nan;-24688.03;4981059;28;20909;-60
2022/06/30 10:12:37;;;;;;;4.90;3.58;;;;;;;31.85;nan;-24695.50;4980544;28;20898;-59
2022/06/30 10:15:04;;;;;;;6.38;4.20;;;;;;;31.96;nan;-24698.50;4981817;28;20175;-57
2022/06/30 10:17:44;;;;;;;5.50;3.97;;;;;;;31.51;nan;-24686.25;4980841;28;20659;-58
2022/06/30 10:20:11;;;;;;;6.13;4.10;;;;;;;31.62;nan;-24689.25;4979931;28;20222;-59
2022/06/30 10:22:39;;;;;;;6.15;3.80;;;;;;;31.62;nan;-24689.25;4981009;28;20186;-59
2022/06/30 10:25:05;;;;;;;6.35;4.10;;;;;;;31.63;nan;-24689.41;4981310;28;20187;-62
2022/06/30 10:27:32;;;;;;;5.93;3.90;;;;;;;32.19;nan;-24704.59;4981516;28;20281;-58
2022/06/30 10:30:06;;;;;;;7.22;3.72;;;;;;;32.31;nan;-24707.88;4982176;28;21976;-60
2022/06/30 10:32:43;;;;;;;6.60;3.97;;;;;;;32.69;nan;-24717.91;4979929;28;21154;-59
2022/06/30 10:35:36;;;;;;;5.15;3.78;;;;;;;32.94;nan;-24724.53;4980089;28;20213;-58
2022/06/30 10:38:23;;;;;;;5.50;3.65;;;;;;;32.97;nan;-24725.50;4982406;28;20274;-58
2022/06/30 10:41:16;;;;;;;4.47;3.53;;;;;;;32.57;nan;-24714.78;4980344;28;20203;-61
2022/06/30 10:44:22;;;;;;;6.95;4.15;;;;;;;32.25;nan;-24706.09;4980423;28;20193;-59
2022/06/30 10:46:47;;;;;;;5.28;3.65;;;;;;;31.63;nan;-24689.53;4939978;28;21032;-60
2022/06/30 10:49:13;;;;;;;6.20;3.78;;;;;;;31.44;nan;-24684.34;4974659;28;21058;-58
2022/06/30 10:51:39;;;;;;;6.72;3.97;;;;;;;31.59;nan;-24688.44;4982369;28;20174;-60
2022/06/30 10:54:06;;;;;;;8.43;5.15;;;;;;;31.37;nan;-24682.44;4980901;28;20187;-60
2022/06/30 10:56:53;;;;;;;5.82;4.30;;;;;;;31.76;nan;-24693.06;4981687;28;20253;-60
2022/06/30 10:59:42;;;;;;;7.05;3.72;;;;;;;31.63;nan;-24689.41;4981006;28;20214;-59
2022/06/30 11:02:08;;;;;;;4.05;3.33;;;;;;;32.00;nan;-24699.56;4981647;28;20201;-62
2022/06/30 11:04:34;;;;;;;6.47;3.83;;;;;;;31.83;nan;-24694.97;4980569;28;20207;-59
2022/06/30 11:07:06;;;;;;;6.45;3.67;;;;;;;31.78;nan;-24693.47;4981028;28;20172;-59
2022/06/30 11:09:44;;;;;;;5.10;3.75;;;;;;;31.58;nan;-24688.16;4980990;28;22020;-61
2022/06/30 11:12:11;;;;;;;4.68;3.50;;;;;;;31.68;nan;-24690.75;4978990;28;20273;-60
2022/06/30 11:14:36;;;;;;;5.38;3.63;;;;;;;31.51;nan;-24686.41;4980874;28;20187;-57
2022/06/30 11:17:16;;;;;;;4.07;3.15;;;;;;;31.81;nan;-24694.28;4981434;28;20854;-59
2022/06/30 11:19:42;;;;;;;4.95;3.55;;;;;;;30.80;nan;-24667.22;4981000;28;20234;-61
2022/06/30 11:22:08;;;;;;;4.32;3.33;;;;;;;31.57;nan;-24687.91;4975746;28;20232;-59
2022/06/30 11:24:40;;;;;;;5.53;3.58;;;;;;;31.63;nan;-24689.41;4978773;28;20278;-60
2022/06/30 11:27:22;;;;;;;5.32;3.63;;;;;;;31.64;nan;-24689.66;4978752;28;20187;-61
2022/06/30 11:29:48;;;;;;;6.22;3.72;;;;;;;31.50;nan;-24685.97;4979764;28;21136;-58
2022/06/30 11:32:14;;;;;;;4.97;3.35;;;;;;;31.46;nan;-24684.91;4979329;28;20198;-60
2022/06/30 11:34:43;;;;;;;4.45;3.25;;;;;;;31.63;nan;-24689.41;4978954;28;20211;-59
2022/06/30 11:37:09;;;;;;;4.13;3.10;;;;;;;31.73;nan;-24692.09;4981269;28;20218;-61
2022/06/30 11:39:34;;;;;;;4.25;2.85;;;;;;;32.08;nan;-24701.47;4982539;28;20225;-59
2022/06/30 11:42:03;;;;;;;6.45;3.08;;;;;;;31.55;nan;-24687.34;4977428;28;20336;-60
2022/06/30 11:44:32;;;;;;;5.18;3.22;;;;;;;31.78;nan;-24693.59;4979717;28;20274;-61
2022/06/30 11:47:16;;;;;;;5.55;3.10;;;;;;;31.93;nan;-24697.69;4990328;28;20666;-60
2022/06/30 11:49:43;;;;;;;4.53;3.30;;;;;;;31.90;nan;-24696.88;4982769;28;20769;-59
2022/06/30 11:52:24;;;;;;;3.70;2.83;;;;;;;31.78;nan;-24693.59;4980152;28;20171;-62
2022/06/30 11:54:54;;;;;;;3.78;2.70;;;;;;;31.93;nan;-24697.53;4981505;28;20183;-62
2022/06/30 11:57:22;;;;;;;6.20;3.03;;;;;;;32.02;nan;-24699.97;4979567;28;20222;-58